createdAt,value
2019-02-12T00:01:32.086Z,5.20
2019-02-12T00:03:58.282Z,5.20
2019-02-12T00:06:24.442Z,5.20
2019-02-12T00:08:50.629Z,5.20
2019-02-12T00:11:16.817Z,5.30
2019-02-12T00:13:43.875Z,5.30
2019-02-12T00:16:10.092Z,5.30
2019-02-12T00:18:36.261Z,5.30
2019-02-12T00:21:08.946Z,5.30
2019-02-12T00:23:30.543Z,5.30
2019-02-12T00:25:56.756Z,5.30
2019-02-12T00:28:23.407Z,5.30
2019-02-12T00:30:49.634Z,5.30
2019-02-12T00:33:15.839Z,5.30
2019-02-12T00:35:42.068Z,5.30
2019-02-12T00:38:08.615Z,5.30
2019-02-12T00:40:35.129Z,5.30
2019-02-12T00:43:01.592Z,5.30
2019-02-12T00:45:27.782Z,5.20
2019-02-12T00:47:53.945Z,5.20
2019-02-12T00:50:20.173Z,5.20
2019-02-12T00:52:46.364Z,5.10
2019-02-12T00:55:12.605Z,5.10
2019-02-12T00:57:38.825Z,5.10
2019-02-12T01:00:13.151Z,5.10
2019-02-12T01:02:39.332Z,5.10
2019-02-12T01:05:06.240Z,5.10
2019-02-12T01:07:32.777Z,5.10
2019-02-12T01:09:59.275Z,5.10
2019-02-12T01:12:25.440Z,5.10
2019-02-12T01:14:51.853Z,5.10
2019-02-12T01:17:18.044Z,5.00
2019-02-12T01:19:44.564Z,5.00
2019-02-12T01:22:11.268Z,5.00
2019-02-12T01:24:37.455Z,5.00
2019-02-12T01:27:03.701Z,5.00
2019-02-12T01:29:31.777Z,5.00
2019-02-12T01:31:58.045Z,5.10
2019-02-12T01:34:24.235Z,5.10
2019-02-12T01:36:50.577Z,5.10
2019-02-12T01:39:16.815Z,5.10
2019-02-12T01:41:43.097Z,5.20
2019-02-12T01:44:09.273Z,5.20
2019-02-12T01:46:35.468Z,5.20
2019-02-12T01:49:01.644Z,5.20
2019-02-12T01:51:34.950Z,5.20
2019-02-12T01:53:55.954Z,5.20
2019-02-12T01:56:22.461Z,5.20
2019-02-12T01:58:48.653Z,5.20
2019-02-12T02:01:14.855Z,5.20
2019-02-12T02:03:41.052Z,5.20
2019-02-12T02:06:07.237Z,5.20
2019-02-12T02:08:33.410Z,5.20
2019-02-12T02:10:59.623Z,5.20
2019-02-12T02:13:25.789Z,5.20
2019-02-12T02:15:52.020Z,5.20
2019-02-12T02:18:18.241Z,5.30
2019-02-12T02:20:44.435Z,5.30
2019-02-12T02:23:10.615Z,5.30
2019-02-12T02:25:37.118Z,5.30
2019-02-12T02:28:03.459Z,5.30
2019-02-12T02:30:29.652Z,5.30
2019-02-12T02:32:56.097Z,5.30
2019-02-12T02:35:22.231Z,5.30
2019-02-12T02:37:48.450Z,5.40
2019-02-12T02:40:14.605Z,5.40
2019-02-12T02:42:40.814Z,5.40
2019-02-12T02:45:10.633Z,5.40
2019-02-12T02:47:36.835Z,5.40
2019-02-12T02:50:06.229Z,5.40
2019-02-12T02:52:32.449Z,5.40
2019-02-12T02:54:58.661Z,5.50
2019-02-12T02:57:25.033Z,5.50
2019-02-12T02:59:51.530Z,5.50
2019-02-12T03:02:17.728Z,5.50
2019-02-12T03:04:44.307Z,5.50
2019-02-12T03:07:10.576Z,5.50
2019-02-12T03:09:36.757Z,5.50
2019-02-12T03:12:03.321Z,5.50
2019-02-12T03:14:29.505Z,5.50
2019-02-12T03:16:56.290Z,5.50
2019-02-12T03:19:22.592Z,5.40
2019-02-12T03:21:48.764Z,5.40
2019-02-12T03:24:14.979Z,5.40
2019-02-12T03:26:41.164Z,5.40
2019-02-12T03:29:07.366Z,5.40
2019-02-12T03:31:35.915Z,5.40
2019-02-12T03:34:02.111Z,5.40
2019-02-12T03:36:28.308Z,5.30
2019-02-12T03:38:55.783Z,5.30
2019-02-12T03:41:22.327Z,5.30
2019-02-12T03:43:48.527Z,5.30
2019-02-12T03:46:14.703Z,5.30
2019-02-12T03:48:40.896Z,5.30
2019-02-12T03:51:07.064Z,5.30
2019-02-12T03:53:33.250Z,5.30
2019-02-12T03:55:59.421Z,5.30
2019-02-12T03:58:25.830Z,5.30
2019-02-12T04:00:52.008Z,5.30
2019-02-12T04:03:18.211Z,5.30
2019-02-12T04:05:44.384Z,5.40
2019-02-12T04:08:10.603Z,5.40
2019-02-12T04:10:36.771Z,5.40
2019-02-12T04:13:03.352Z,5.30
2019-02-12T04:15:29.522Z,5.30
2019-02-12T04:17:55.845Z,5.30
2019-02-12T04:20:22.114Z,5.30
2019-02-12T04:22:48.286Z,5.30
2019-02-12T04:25:14.482Z,5.20
2019-02-12T04:27:40.653Z,5.20
2019-02-12T04:30:07.356Z,5.10
2019-02-12T04:32:33.638Z,5.10
2019-02-12T04:34:59.825Z,5.10
2019-02-12T04:37:25.980Z,5.00
2019-02-12T04:39:52.189Z,5.00
2019-02-12T04:42:18.726Z,5.00
2019-02-12T04:44:44.911Z,4.90
2019-02-12T04:47:11.105Z,4.90
2019-02-12T04:49:37.277Z,4.80
2019-02-12T04:52:03.489Z,4.80
2019-02-12T04:54:29.679Z,4.80
2019-02-12T04:56:55.898Z,4.70
2019-02-12T04:59:22.061Z,4.70
2019-02-12T05:01:48.267Z,4.70
2019-02-12T05:04:14.487Z,4.70
2019-02-12T05:06:40.679Z,4.70
2019-02-12T05:09:13.178Z,4.60
2019-02-12T05:11:43.949Z,4.70
2019-02-12T05:14:10.158Z,4.70
2019-02-12T05:16:36.344Z,4.70
2019-02-12T05:19:02.565Z,4.70
2019-02-12T05:21:28.745Z,4.70
2019-02-12T05:23:54.984Z,4.80
2019-02-12T05:26:21.625Z,4.80
2019-02-12T05:28:47.838Z,4.80
2019-02-12T05:31:14.036Z,4.80
2019-02-12T05:33:40.385Z,4.90
2019-02-12T05:36:06.592Z,4.90
2019-02-12T05:38:34.594Z,4.90
2019-02-12T05:41:01.948Z,4.90
2019-02-12T05:43:28.472Z,4.90
2019-02-12T05:45:54.680Z,4.90
2019-02-12T05:48:20.930Z,4.90
2019-02-12T05:50:47.536Z,4.90
2019-02-12T05:53:13.725Z,4.90
2019-02-12T05:55:40.188Z,4.90
2019-02-12T05:58:06.373Z,5.00
2019-02-12T06:00:33.592Z,5.00
2019-02-12T06:03:00.417Z,5.00
2019-02-12T06:05:29.674Z,5.00
2019-02-12T06:07:56.208Z,5.00
2019-02-12T06:10:23.015Z,5.00
2019-02-12T06:12:49.174Z,5.00
2019-02-12T06:15:15.387Z,5.00
2019-02-12T06:17:42.844Z,5.00
2019-02-12T06:20:09.163Z,5.00
2019-02-12T06:22:35.327Z,5.00
2019-02-12T06:25:02.090Z,5.00
2019-02-12T06:27:28.360Z,5.10
2019-02-12T06:29:54.927Z,5.00
2019-02-12T06:32:21.136Z,5.10
2019-02-12T06:34:47.348Z,5.10
2019-02-12T06:37:13.525Z,5.10
2019-02-12T06:39:39.778Z,5.00
2019-02-12T06:42:05.958Z,5.00
2019-02-12T06:44:32.243Z,5.00
2019-02-12T06:46:58.414Z,5.00
2019-02-12T06:49:24.616Z,5.10
2019-02-12T06:51:51.152Z,5.10
2019-02-12T06:54:19.264Z,5.10
2019-02-12T06:56:45.482Z,5.10
2019-02-12T06:59:11.662Z,5.20
2019-02-12T07:01:37.835Z,5.20
2019-02-12T07:04:04.345Z,5.20
2019-02-12T07:06:39.346Z,5.30
2019-02-12T07:09:20.216Z,5.30
2019-02-12T07:12:15.873Z,5.30
2019-02-12T07:14:56.339Z,5.30
2019-02-12T07:17:54.401Z,5.40
2019-02-12T07:20:34.895Z,5.40
2019-02-12T07:23:37.864Z,5.40
2019-02-12T07:26:45.549Z,5.40
2019-02-12T07:29:23.648Z,5.40
2019-02-12T07:32:13.137Z,5.40
2019-02-12T07:34:53.046Z,5.40
2019-02-12T07:37:31.387Z,5.50
2019-02-12T07:40:21.732Z,5.50
2019-02-12T07:43:11.793Z,5.50
2019-02-12T07:45:52.919Z,5.50
2019-02-12T07:48:39.553Z,5.50
2019-02-12T07:51:19.909Z,5.50
2019-02-12T07:54:12.249Z,5.50
2019-02-12T07:57:05.563Z,5.50
2019-02-12T08:00:10.160Z,5.50
2019-02-12T08:03:11.523Z,5.60
2019-02-12T08:05:46.559Z,5.60
2019-02-12T08:08:30.228Z,5.60
2019-02-12T08:11:05.072Z,5.60
2019-02-12T08:14:06.429Z,5.60
2019-02-12T08:16:49.854Z,5.60
2019-02-12T08:19:33.249Z,5.70
2019-02-12T08:22:25.830Z,5.70
2019-02-12T08:25:08.843Z,5.70
2019-02-12T08:28:17.994Z,5.80
2019-02-12T08:31:26.307Z,5.80
2019-02-12T08:34:40.702Z,5.90
2019-02-12T08:37:24.711Z,5.90
2019-02-12T08:40:07.708Z,5.90
2019-02-12T08:42:54.824Z,5.90
2019-02-12T08:45:47.581Z,5.90
2019-02-12T08:48:37.714Z,5.90
2019-02-12T08:51:36.277Z,5.90
2019-02-12T08:54:44.501Z,5.90
2019-02-12T08:57:54.735Z,5.90
2019-02-12T09:00:32.115Z,5.90
2019-02-12T09:03:23.508Z,6.00
2019-02-12T09:05:58.173Z,6.00
2019-02-12T09:08:36.222Z,6.10
2019-02-12T09:11:14.481Z,6.10
2019-02-12T09:13:46.438Z,6.10
2019-02-12T09:16:38.556Z,6.10
2019-02-12T09:19:19.510Z,6.20
2019-02-12T09:22:18.349Z,6.20
2019-02-12T09:25:15.760Z,6.20
2019-02-12T09:28:08.410Z,6.30
2019-02-12T09:30:40.312Z,6.30
2019-02-12T09:33:32.885Z,6.30
2019-02-12T09:36:31.815Z,6.40
2019-02-12T09:39:24.265Z,6.50
2019-02-12T09:42:01.725Z,6.70
2019-02-12T09:45:02.039Z,6.90
2019-02-12T09:47:42.469Z,7.20
2019-02-12T09:50:29.342Z,7.50
2019-02-12T09:53:41.079Z,7.70
2019-02-12T09:56:22.410Z,7.90
2019-02-12T09:59:09.467Z,8.10
2019-02-12T10:01:59.606Z,8.20
2019-02-12T10:04:51.812Z,8.40
2019-02-12T10:07:50.913Z,8.50
2019-02-12T10:10:53.215Z,8.60
2019-02-12T10:13:30.885Z,8.90
2019-02-12T10:16:22.068Z,9.20
2019-02-12T10:19:06.277Z,9.50
2019-02-12T10:22:07.690Z,9.80
2019-02-12T10:24:48.559Z,10.00
2019-02-12T10:27:59.296Z,10.10
2019-02-12T10:30:45.958Z,10.10
2019-02-12T10:33:12.287Z,10.00
2019-02-12T10:35:38.947Z,9.80
2019-02-12T10:38:05.272Z,9.70
2019-02-12T10:40:31.546Z,9.50
2019-02-12T10:42:57.770Z,9.40
2019-02-12T10:45:25.789Z,9.20
2019-02-12T10:47:52.571Z,9.10
2019-02-12T10:50:20.209Z,8.90
2019-02-12T10:52:46.370Z,8.80
2019-02-12T10:55:12.581Z,8.70
2019-02-12T10:57:38.755Z,8.50
2019-02-12T11:00:12.946Z,8.40
2019-02-12T11:02:39.098Z,8.30
2019-02-12T11:05:05.348Z,8.20
2019-02-12T11:07:31.529Z,8.20
2019-02-12T11:09:57.796Z,8.10
2019-02-12T11:12:23.946Z,8.10
2019-02-12T11:14:50.521Z,8.10
2019-02-12T11:17:16.673Z,8.10
2019-02-12T11:19:43.009Z,8.00
2019-02-12T11:22:09.178Z,8.00
2019-02-12T11:24:35.851Z,8.00
2019-02-12T11:27:02.078Z,8.10
2019-02-12T11:29:28.628Z,8.10
2019-02-12T11:31:54.751Z,8.20
2019-02-12T11:34:20.966Z,8.20
2019-02-12T11:36:47.122Z,8.20
2019-02-12T11:39:13.434Z,8.30
2019-02-12T11:41:39.907Z,8.30
2019-02-12T11:44:06.120Z,8.20
2019-02-12T11:46:33.685Z,8.20
2019-02-12T11:48:59.892Z,8.20
2019-02-12T11:51:26.108Z,8.10
2019-02-12T11:53:52.279Z,8.10
2019-02-12T11:56:18.458Z,8.00
2019-02-12T11:58:44.605Z,8.00
2019-02-12T12:01:12.465Z,7.90
2019-02-12T12:03:38.580Z,7.80
2019-02-12T12:06:04.803Z,7.60
2019-02-12T12:08:31.011Z,7.50
2019-02-12T12:10:57.448Z,7.40
2019-02-12T12:13:23.614Z,7.30
2019-02-12T12:15:49.822Z,7.20
2019-02-12T12:18:16.121Z,7.10
2019-02-12T12:20:42.324Z,7.00
2019-02-12T12:23:08.506Z,7.00
2019-02-12T12:25:34.714Z,6.90
2019-02-12T12:28:00.868Z,6.90
2019-02-12T12:30:29.285Z,6.90
2019-02-12T12:32:56.511Z,6.90
2019-02-12T12:35:23.191Z,6.90
2019-02-12T12:37:49.350Z,6.90
2019-02-12T12:40:15.594Z,6.90
2019-02-12T12:42:41.765Z,6.80
2019-02-12T12:45:14.030Z,6.90
2019-02-12T12:47:40.222Z,6.90
2019-02-12T12:50:09.522Z,6.90
2019-02-12T12:52:35.708Z,6.90
2019-02-12T12:55:03.442Z,6.90
2019-02-12T12:57:29.618Z,6.90
2019-02-12T12:59:56.085Z,6.90
2019-02-12T13:02:22.312Z,6.90
2019-02-12T13:04:48.748Z,6.90
2019-02-12T13:07:14.961Z,6.90
2019-02-12T13:09:41.180Z,6.90
2019-02-12T13:12:07.391Z,6.90
2019-02-12T13:14:33.927Z,6.90
2019-02-12T13:17:00.117Z,6.90
2019-02-12T13:19:26.283Z,7.00
2019-02-12T13:21:52.500Z,7.00
2019-02-12T13:24:18.658Z,7.00
2019-02-12T13:26:44.857Z,7.00
2019-02-12T13:29:11.021Z,7.00
2019-02-12T13:31:39.907Z,7.00
2019-02-12T13:34:06.244Z,7.00
2019-02-12T13:36:32.482Z,7.00
2019-02-12T13:38:58.677Z,7.00
2019-02-12T13:41:24.908Z,7.00
2019-02-12T13:43:51.135Z,7.00
2019-02-12T13:46:17.501Z,7.00
2019-02-12T13:48:44.452Z,7.00
2019-02-12T13:51:10.651Z,7.00
2019-02-12T13:53:37.127Z,7.00
2019-02-12T13:56:03.348Z,7.00
2019-02-12T13:58:29.533Z,7.10
2019-02-12T14:00:55.751Z,7.10
2019-02-12T14:03:22.684Z,7.10
2019-02-12T14:05:49.221Z,7.20
2019-02-12T14:08:15.540Z,7.20
2019-02-12T14:10:41.690Z,7.30
2019-02-12T14:13:07.887Z,7.30
2019-02-12T14:15:34.115Z,7.30
2019-02-12T14:18:00.298Z,7.40
2019-02-12T14:20:26.481Z,7.40
2019-02-12T14:22:52.686Z,7.40
2019-02-12T14:25:25.185Z,7.50
2019-02-12T14:27:46.936Z,7.50
2019-02-12T14:30:16.654Z,7.50
2019-02-12T14:32:45.130Z,7.60
2019-02-12T14:35:11.554Z,7.60
2019-02-12T14:37:38.104Z,7.60
2019-02-12T14:40:14.169Z,7.70
2019-02-12T14:42:40.541Z,7.70
2019-02-12T14:45:13.814Z,7.70
2019-02-12T14:47:40.016Z,7.70
2019-02-12T14:50:10.183Z,7.70
2019-02-12T14:52:36.673Z,7.70
2019-02-12T14:55:03.816Z,7.80
2019-02-12T14:57:30.041Z,7.80
2019-02-12T14:59:56.251Z,7.80
2019-02-12T15:02:22.464Z,7.90
2019-02-12T15:04:48.674Z,7.90
2019-02-12T15:07:14.864Z,7.90
2019-02-12T15:09:41.126Z,7.90
2019-02-12T15:12:07.339Z,7.90
2019-02-12T15:14:33.474Z,7.90
2019-02-12T15:16:59.697Z,7.90
2019-02-12T15:19:25.867Z,7.90
2019-02-12T15:21:52.062Z,7.90
2019-02-12T15:24:18.232Z,7.90
2019-02-12T15:26:44.522Z,7.90
2019-02-12T15:29:10.719Z,7.80
2019-02-12T15:31:36.925Z,7.80
2019-02-12T15:34:03.126Z,7.70
2019-02-12T15:36:29.588Z,7.70
2019-02-12T15:38:56.130Z,7.60
2019-02-12T15:41:22.326Z,7.50
2019-02-12T15:43:48.524Z,7.50
2019-02-12T15:46:15.185Z,7.40
2019-02-12T15:48:41.382Z,7.30
2019-02-12T15:51:07.572Z,7.30
2019-02-12T15:53:33.800Z,7.20
2019-02-12T15:55:59.931Z,7.10
2019-02-12T15:58:27.910Z,7.10
2019-02-12T16:00:54.230Z,7.00
2019-02-12T16:03:20.576Z,6.90
2019-02-12T16:05:46.801Z,6.90
2019-02-12T16:08:13.014Z,6.80
2019-02-12T16:10:41.793Z,6.70
2019-02-12T16:13:09.396Z,6.70
2019-02-12T16:15:35.795Z,6.60
2019-02-12T16:18:02.571Z,6.50
2019-02-12T16:20:30.613Z,6.40
2019-02-12T16:22:57.048Z,6.40
2019-02-12T16:25:23.237Z,6.30
2019-02-12T16:27:49.465Z,6.30
2019-02-12T16:30:20.930Z,6.20
2019-02-12T16:32:47.144Z,6.20
2019-02-12T16:35:15.596Z,6.10
2019-02-12T16:37:42.040Z,6.10
2019-02-12T16:40:16.613Z,6.00
2019-02-12T16:42:42.812Z,6.00
2019-02-12T16:45:16.454Z,5.90
2019-02-12T16:47:42.941Z,5.90
2019-02-12T16:50:09.117Z,5.80
2019-02-12T16:52:35.313Z,5.80
2019-02-12T16:55:01.841Z,5.80
2019-02-12T16:57:28.014Z,5.70
2019-02-12T16:59:54.222Z,5.70
2019-02-12T17:02:20.755Z,5.60
2019-02-12T17:04:47.147Z,5.60
2019-02-12T17:07:13.354Z,5.60
2019-02-12T17:09:39.575Z,5.50
2019-02-12T17:12:05.778Z,5.50
2019-02-12T17:14:32.159Z,5.40
2019-02-12T17:16:58.321Z,5.50
2019-02-12T17:19:24.521Z,5.40
2019-02-12T17:21:50.830Z,5.40
2019-02-12T17:24:17.062Z,5.30
2019-02-12T17:26:43.238Z,5.30
2019-02-12T17:29:09.441Z,5.30
2019-02-12T17:31:35.622Z,5.30
2019-02-12T17:34:01.844Z,5.30
2019-02-12T17:36:28.071Z,5.20
2019-02-12T17:38:54.280Z,5.20
2019-02-12T17:41:20.461Z,5.20
2019-02-12T17:43:46.785Z,5.20
2019-02-12T17:46:12.969Z,5.20
2019-02-12T17:48:39.191Z,5.20
2019-02-12T17:51:05.361Z,5.30
2019-02-12T17:53:31.704Z,5.30
2019-02-12T17:55:57.879Z,5.30
2019-02-12T17:58:24.075Z,5.30
2019-02-12T18:00:50.624Z,5.30
2019-02-12T18:03:16.823Z,5.40
2019-02-12T18:05:43.061Z,5.40
2019-02-12T18:08:09.259Z,5.40
2019-02-12T18:10:35.635Z,5.40
2019-02-12T18:13:01.848Z,5.40
2019-02-12T18:15:28.068Z,5.50
2019-02-12T18:17:54.256Z,5.50
2019-02-12T18:20:26.317Z,5.50
2019-02-12T18:22:48.558Z,5.50
2019-02-12T18:25:14.798Z,5.60
2019-02-12T18:27:41.345Z,5.60
2019-02-12T18:30:15.859Z,5.60
2019-02-12T18:32:42.077Z,5.60
2019-02-12T18:35:08.288Z,5.60
2019-02-12T18:37:34.450Z,5.60
2019-02-12T18:40:00.653Z,5.60
2019-02-12T18:42:26.817Z,5.60
2019-02-12T18:44:53.030Z,5.60
2019-02-12T18:47:20.622Z,5.60
2019-02-12T18:49:46.816Z,5.60
2019-02-12T18:52:14.057Z,5.60
2019-02-12T18:54:44.661Z,5.60
2019-02-12T18:57:10.874Z,5.60
2019-02-12T18:59:37.104Z,5.60
2019-02-12T19:02:03.482Z,5.60
2019-02-12T19:04:29.842Z,5.60
2019-02-12T19:06:56.049Z,5.70
2019-02-12T19:09:22.277Z,5.70
2019-02-12T19:11:54.118Z,5.70
2019-02-12T19:14:16.580Z,5.70
2019-02-12T19:16:42.792Z,5.70
2019-02-12T19:19:09.037Z,5.80
2019-02-12T19:21:35.515Z,5.80
2019-02-12T19:24:01.703Z,5.80
2019-02-12T19:26:27.996Z,5.90
2019-02-12T19:28:54.181Z,5.90
2019-02-12T19:31:20.429Z,5.90
2019-02-12T19:33:46.616Z,5.90
2019-02-12T19:36:12.820Z,6.00
2019-02-12T19:38:39.009Z,6.00
2019-02-12T19:41:05.574Z,6.00
2019-02-12T19:43:31.742Z,6.00
2019-02-12T19:45:58.042Z,6.10
2019-02-12T19:48:24.236Z,6.10
2019-02-12T19:50:50.454Z,6.10
2019-02-12T19:53:16.616Z,6.20
2019-02-12T19:55:43.103Z,6.20
2019-02-12T19:58:09.260Z,6.20
2019-02-12T20:00:35.847Z,6.20
2019-02-12T20:03:02.114Z,6.20
2019-02-12T20:05:28.745Z,6.30
2019-02-12T20:07:54.915Z,6.30
2019-02-12T20:10:21.772Z,6.30
2019-02-12T20:12:47.997Z,6.30
2019-02-12T20:15:21.196Z,6.30
2019-02-12T20:17:47.797Z,6.40
2019-02-12T20:20:14.299Z,6.40
2019-02-12T20:22:40.811Z,6.40
2019-02-12T20:25:09.135Z,6.40
2019-02-12T20:27:36.299Z,6.40
2019-02-12T20:30:08.144Z,6.30
2019-02-12T20:32:34.533Z,6.30
2019-02-12T20:35:01.002Z,6.30
2019-02-12T20:37:27.789Z,6.30
2019-02-12T20:39:54.037Z,6.30
2019-02-12T20:42:20.350Z,6.30
2019-02-12T20:44:48.483Z,6.30
2019-02-12T20:47:15.060Z,6.30
2019-02-12T20:49:41.293Z,6.20
2019-02-12T20:52:07.625Z,6.20
2019-02-12T20:54:33.810Z,6.20
2019-02-12T20:57:00.049Z,6.20
2019-02-12T20:59:26.199Z,6.20
2019-02-12T21:01:52.697Z,6.20
2019-02-12T21:04:18.896Z,6.20
2019-02-12T21:06:45.110Z,6.20
2019-02-12T21:09:12.511Z,6.10
2019-02-12T21:11:38.747Z,6.10
2019-02-12T21:14:06.158Z,6.10
2019-02-12T21:16:32.333Z,6.10
2019-02-12T21:18:58.566Z,6.10
2019-02-12T21:21:24.791Z,6.10
2019-02-12T21:23:51.731Z,6.10
2019-02-12T21:29:03.835Z,6.10
2019-02-12T21:31:30.056Z,6.10
2019-02-12T21:33:56.241Z,6.10
2019-02-12T21:36:23.106Z,6.10
2019-02-12T21:38:49.353Z,6.10
2019-02-12T21:41:15.513Z,6.10
2019-02-12T21:43:44.569Z,6.10
2019-02-12T21:46:10.776Z,6.10
2019-02-12T21:48:36.970Z,6.10
2019-02-12T21:51:03.798Z,6.00
2019-02-12T21:53:29.998Z,6.00
2019-02-12T21:55:56.150Z,6.00
2019-02-12T21:58:22.735Z,6.00
2019-02-12T22:00:48.923Z,6.00
2019-02-12T22:03:15.132Z,5.90
2019-02-12T22:05:41.343Z,5.90
2019-02-12T22:08:07.859Z,5.90
2019-02-12T22:10:34.156Z,5.90
2019-02-12T22:13:00.523Z,5.90
2019-02-12T22:15:26.694Z,5.90
2019-02-12T22:17:52.924Z,5.90
2019-02-12T22:20:21.152Z,5.90
2019-02-12T22:22:47.388Z,5.90
2019-02-12T22:25:13.567Z,5.90
2019-02-12T22:27:40.742Z,5.90
2019-02-12T22:30:17.770Z,5.90
2019-02-12T22:32:43.995Z,5.90
2019-02-12T22:35:10.168Z,5.90
2019-02-12T22:37:36.388Z,5.90
2019-02-12T22:40:07.287Z,5.90
2019-02-12T22:42:35.030Z,5.90
2019-02-12T22:45:12.700Z,6.00
2019-02-12T22:47:38.927Z,6.00
2019-02-12T22:50:09.139Z,6.00
2019-02-12T22:52:38.205Z,6.00
2019-02-12T22:55:07.192Z,6.10
2019-02-12T22:57:33.709Z,6.10
2019-02-12T22:59:59.871Z,6.10
2019-02-12T23:02:26.242Z,6.20
2019-02-12T23:04:52.419Z,6.20
2019-02-12T23:07:18.625Z,6.20
2019-02-12T23:09:45.279Z,6.20
2019-02-12T23:12:11.645Z,6.20
2019-02-12T23:14:37.837Z,6.20
2019-02-12T23:17:04.236Z,6.30
2019-02-12T23:19:30.430Z,6.30
2019-02-12T23:21:56.736Z,6.30
2019-02-12T23:24:22.903Z,6.30
2019-02-12T23:26:49.131Z,6.30
2019-02-12T23:29:15.672Z,6.40
2019-02-12T23:31:41.888Z,6.40
2019-02-12T23:34:08.126Z,6.40
2019-02-12T23:36:34.333Z,6.40
2019-02-12T23:39:00.865Z,6.40
2019-02-12T23:41:27.074Z,6.40
2019-02-12T23:43:53.312Z,6.40
2019-02-12T23:46:19.511Z,6.50
2019-02-12T23:48:45.699Z,6.50
2019-02-12T23:51:11.869Z,6.50
2019-02-12T23:53:38.139Z,6.50
2019-02-12T23:56:04.357Z,6.50
2019-02-12T23:58:31.091Z,6.50
